sensor_id;sensor_type;location;lat;lon;timestamp;temperature;humidity
74742;SHT30;76291;48.288;16.314;2024-03-22T00:00:18;11.2;76.4
74742;SHT30;76291;48.288;16.314;2024-03-22T00:01:18;11.3;76.3
74742;SHT30;76291;48.288;16.314;2024-03-22T00:02:21;11.3;76.1
74742;SHT30;76291;48.288;16.314;2024-03-22T00:03:18;11.4;75.9
74742;SHT30;76291;48.288;16.314;2024-03-22T00:04:18;11.3;75.9
74742;SHT30;76291;48.288;16.314;2024-03-22T00:05:18;11.3;75.9
74742;SHT30;76291;48.288;16.314;2024-03-22T00:06:18;11.3;76.2
74742;SHT30;76291;48.288;16.314;2024-03-22T00:07:18;11.3;76.1
74742;SHT30;76291;48.288;16.314;2024-03-22T00:08:18;11.3;76.2
74742;SHT30;76291;48.288;16.314;2024-03-22T00:09:18;11.2;76.5
74742;SHT30;76291;48.288;16.314;2024-03-22T00:10:18;11.3;76.0
74742;SHT30;76291;48.288;16.314;2024-03-22T00:11:18;11.3;76.2
74742;SHT30;76291;48.288;16.314;2024-03-22T00:12:18;11.2;76.3
74742;SHT30;76291;48.288;16.314;2024-03-22T00:13:18;11.2;76.5
74742;SHT30;76291;48.288;16.314;2024-03-22T00:14:18;11.3;76.3
74742;SHT30;76291;48.288;16.314;2024-03-22T00:15:18;11.2;76.4
74742;SHT30;76291;48.288;16.314;2024-03-22T00:16:17;11.3;76.3
74742;SHT30;76291;48.288;16.314;2024-03-22T00:17:17;11.2;76.4
74742;SHT30;76291;48.288;16.314;2024-03-22T00:18:17;11.3;76.4
74742;SHT30;76291;48.288;16.314;2024-03-22T00:19:17;11.3;76.2
74742;SHT30;76291;48.288;16.314;2024-03-22T00:20:17;11.2;76.4
74742;SHT30;76291;48.288;16.314;2024-03-22T00:21:17;11.2;76.6
74742;SHT30;76291;48.288;16.314;2024-03-22T00:22:17;11.3;76.2
74742;SHT30;76291;48.288;16.314;2024-03-22T00:23:17;11.3;76.1
74742;SHT30;76291;48.288;16.314;2024-03-22T00:24:17;11.2;76.5
74742;SHT30;76291;48.288;16.314;2024-03-22T00:26:00;11.3;76.2
74742;SHT30;76291;48.288;16.314;2024-03-22T00:27:00;11.2;76.5
74742;SHT30;76291;48.288;16.314;2024-03-22T00:28:00;11.3;76.2
74742;SHT30;76291;48.288;16.314;2024-03-22T00:29:00;11.2;76.4
74742;SHT30;76291;48.288;16.314;2024-03-22T00:30:00;11.3;76.1
74742;SHT30;76291;48.288;16.314;2024-03-22T00:31:00;11.3;76.1
74742;SHT30;76291;48.288;16.314;2024-03-22T00:32:00;11.4;75.9
74742;SHT30;76291;48.288;16.314;2024-03-22T00:33:00;11.3;76.3
74742;SHT30;76291;48.288;16.314;2024-03-22T00:34:00;11.4;75.9
74742;SHT30;76291;48.288;16.314;2024-03-22T00:35:00;11.3;75.8
74742;SHT30;76291;48.288;16.314;2024-03-22T00:36:00;11.4;75.8
74742;SHT30;76291;48.288;16.314;2024-03-22T00:37:00;11.3;76.2
74742;SHT30;76291;48.288;16.314;2024-03-22T00:38:00;11.3;76.2
74742;SHT30;76291;48.288;16.314;2024-03-22T00:39:00;11.2;76.3
74742;SHT30;76291;48.288;16.314;2024-03-22T00:40:00;11.2;76.5
74742;SHT30;76291;48.288;16.314;2024-03-22T00:41:00;11.2;76.3
74742;SHT30;76291;48.288;16.314;2024-03-22T00:42:00;11.2;76.2
74742;SHT30;76291;48.288;16.314;2024-03-22T00:43:00;11.4;75.8
74742;SHT30;76291;48.288;16.314;2024-03-22T00:43:59;11.4;75.5
74742;SHT30;76291;48.288;16.314;2024-03-22T00:44:59;11.3;75.9
74742;SHT30;76291;48.288;16.314;2024-03-22T00:45:59;11.4;75.9
74742;SHT30;76291;48.288;16.314;2024-03-22T00:46:59;11.4;75.6
74742;SHT30;76291;48.288;16.314;2024-03-22T00:47:59;11.4;75.8
74742;SHT30;76291;48.288;16.314;2024-03-22T00:48:59;11.3;76.0
74742;SHT30;76291;48.288;16.314;2024-03-22T00:49:59;11.4;75.7
74742;SHT30;76291;48.288;16.314;2024-03-22T00:50:59;11.2;76.1
74742;SHT30;76291;48.288;16.314;2024-03-22T00:51:59;11.3;76.1
74742;SHT30;76291;48.288;16.314;2024-03-22T00:52:59;11.3;75.9
74742;SHT30;76291;48.288;16.314;2024-03-22T00:53:59;11.3;75.9
74742;SHT30;76291;48.288;16.314;2024-03-22T00:54:59;11.3;76.0
74742;SHT30;76291;48.288;16.314;2024-03-22T00:55:59;11.4;75.8
74742;SHT30;76291;48.288;16.314;2024-03-22T00:56:59;11.4;75.6
74742;SHT30;76291;48.288;16.314;2024-03-22T00:57:59;11.3;75.8
74742;SHT30;76291;48.288;16.314;2024-03-22T00:58:59;11.3;75.8
74742;SHT30;76291;48.288;16.314;2024-03-22T00:59:59;11.3;76.1
74742;SHT30;76291;48.288;16.314;2024-03-22T01:00:59;11.3;76.0
74742;SHT30;76291;48.288;16.314;2024-03-22T01:01:59;11.2;76.1
74742;SHT30;76291;48.288;16.314;2024-03-22T01:02:59;11.2;76.0
74742;SHT30;76291;48.288;16.314;2024-03-22T01:03:59;11.2;76.3
74742;SHT30;76291;48.288;16.314;2024-03-22T01:04:59;11.3;76.2
74742;SHT30;76291;48.288;16.314;2024-03-22T01:05:59;11.3;75.9
74742;SHT30;76291;48.288;16.314;2024-03-22T01:06:59;11.3;76.1
74742;SHT30;76291;48.288;16.314;2024-03-22T01:07:59;11.3;75.9
74742;SHT30;76291;48.288;16.314;2024-03-22T01:08:59;11.3;75.7
74742;SHT30;76291;48.288;16.314;2024-03-22T01:09:59;11.3;75.8
74742;SHT30;76291;48.288;16.314;2024-03-22T01:10:59;11.3;75.9
74742;SHT30;76291;48.288;16.314;2024-03-22T01:11:59;11.2;76.0
74742;SHT30;76291;48.288;16.314;2024-03-22T01:12:59;11.2;76.0
74742;SHT30;76291;48.288;16.314;2024-03-22T01:13:59;11.3;75.7
74742;SHT30;76291;48.288;16.314;2024-03-22T01:14:59;11.3;75.7
74742;SHT30;76291;48.288;16.314;2024-03-22T01:15:59;11.3;75.8
74742;SHT30;76291;48.288;16.314;2024-03-22T01:16:59;11.3;75.5
74742;SHT30;76291;48.288;16.314;2024-03-22T01:17:59;11.3;75.7
74742;SHT30;76291;48.288;16.314;2024-03-22T01:18:58;11.3;75.7
74742;SHT30;76291;48.288;16.314;2024-03-22T01:19:58;11.3;75.8
74742;SHT30;76291;48.288;16.314;2024-03-22T01:20:58;11.3;75.5
74742;SHT30;76291;48.288;16.314;2024-03-22T01:21:58;11.4;75.3
74742;SHT30;76291;48.288;16.314;2024-03-22T01:22:59;11.4;75.3
74742;SHT30;76291;48.288;16.314;2024-03-22T01:23:58;11.4;75.4
74742;SHT30;76291;48.288;16.314;2024-03-22T01:24:58;11.5;75.2
74742;SHT30;76291;48.288;16.314;2024-03-22T01:25:58;11.4;75.2
74742;SHT30;76291;48.288;16.314;2024-03-22T01:26:58;11.4;75.4
74742;SHT30;76291;48.288;16.314;2024-03-22T01:27:58;11.3;75.7
74742;SHT30;76291;48.288;16.314;2024-03-22T01:28:58;11.3;75.9
74742;SHT30;76291;48.288;16.314;2024-03-22T01:29:58;11.3;75.6
74742;SHT30;76291;48.288;16.314;2024-03-22T01:30:58;11.3;75.8
74742;SHT30;76291;48.288;16.314;2024-03-22T01:31:58;11.2;75.9
74742;SHT30;76291;48.288;16.314;2024-03-22T01:32:58;11.3;75.8
74742;SHT30;76291;48.288;16.314;2024-03-22T01:33:58;11.4;75.5
74742;SHT30;76291;48.288;16.314;2024-03-22T01:34:58;11.3;75.8
74742;SHT30;76291;48.288;16.314;2024-03-22T01:35:58;11.2;75.9
74742;SHT30;76291;48.288;16.314;2024-03-22T01:36:58;11.3;75.9
74742;SHT30;76291;48.288;16.314;2024-03-22T01:37:58;11.2;76.0
74742;SHT30;76291;48.288;16.314;2024-03-22T01:38:58;11.2;76.1
74742;SHT30;76291;48.288;16.314;2024-03-22T01:39:58;11.2;75.9
74742;SHT30;76291;48.288;16.314;2024-03-22T01:40:58;11.4;75.5
74742;SHT30;76291;48.288;16.314;2024-03-22T01:41:58;11.4;75.3
74742;SHT30;76291;48.288;16.314;2024-03-22T01:42:58;11.3;75.6
74742;SHT30;76291;48.288;16.314;2024-03-22T01:43:58;11.2;75.9
74742;SHT30;76291;48.288;16.314;2024-03-22T01:44:58;11.4;75.7
74742;SHT30;76291;48.288;16.314;2024-03-22T01:45:58;11.3;75.8
74742;SHT30;76291;48.288;16.314;2024-03-22T01:46:58;11.2;76.1
74742;SHT30;76291;48.288;16.314;2024-03-22T01:47:58;11.2;76.2
74742;SHT30;76291;48.288;16.314;2024-03-22T01:48:58;11.2;76.1
74742;SHT30;76291;48.288;16.314;2024-03-22T01:49:58;11.2;76.3
74742;SHT30;76291;48.288;16.314;2024-03-22T01:50:58;11.2;76.3
74742;SHT30;76291;48.288;16.314;2024-03-22T01:51:57;11.3;76.2
74742;SHT30;76291;48.288;16.314;2024-03-22T01:52:57;11.3;75.9
74742;SHT30;76291;48.288;16.314;2024-03-22T01:53:58;11.2;76.2
74742;SHT30;76291;48.288;16.314;2024-03-22T01:55:00;11.3;75.9
74742;SHT30;76291;48.288;16.314;2024-03-22T01:55:57;11.3;75.9
74742;SHT30;76291;48.288;16.314;2024-03-22T01:56:57;11.1;76.6
74742;SHT30;76291;48.288;16.314;2024-03-22T01:57:57;11.2;76.6
74742;SHT30;76291;48.288;16.314;2024-03-22T01:58:57;11.3;76.2
74742;SHT30;76291;48.288;16.314;2024-03-22T01:59:57;11.2;76.2
74742;SHT30;76291;48.288;16.314;2024-03-22T02:00:57;11.2;76.8
74742;SHT30;76291;48.288;16.314;2024-03-22T02:01:57;11.2;76.5
74742;SHT30;76291;48.288;16.314;2024-03-22T02:02:57;11.3;76.5
74742;SHT30;76291;48.288;16.314;2024-03-22T02:03:57;11.3;76.1
74742;SHT30;76291;48.288;16.314;2024-03-22T02:04:57;11.2;76.3
74742;SHT30;76291;48.288;16.314;2024-03-22T02:05:57;11.2;76.3
74742;SHT30;76291;48.288;16.314;2024-03-22T02:06:57;11.3;76.3
74742;SHT30;76291;48.288;16.314;2024-03-22T02:07:57;11.3;76.2
74742;SHT30;76291;48.288;16.314;2024-03-22T02:08:57;11.3;76.3
74742;SHT30;76291;48.288;16.314;2024-03-22T02:09:57;11.3;76.1
74742;SHT30;76291;48.288;16.314;2024-03-22T02:10:57;11.2;76.4
74742;SHT30;76291;48.288;16.314;2024-03-22T02:11:57;11.3;76.6
74742;SHT30;76291;48.288;16.314;2024-03-22T02:12:57;11.2;76.8
74742;SHT30;76291;48.288;16.314;2024-03-22T02:13:57;11.3;77.0
74742;SHT30;76291;48.288;16.314;2024-03-22T02:14:57;11.4;77.2
74742;SHT30;76291;48.288;16.314;2024-03-22T02:15:57;11.2;77.5
74742;SHT30;76291;48.288;16.314;2024-03-22T02:16:57;11.2;77.6
74742;SHT30;76291;48.288;16.314;2024-03-22T02:17:57;11.2;78.2
74742;SHT30;76291;48.288;16.314;2024-03-22T02:18:59;11.2;78.3
74742;SHT30;76291;48.288;16.314;2024-03-22T02:19:57;11.3;78.0
74742;SHT30;76291;48.288;16.314;2024-03-22T02:20:57;11.2;78.5
74742;SHT30;76291;48.288;16.314;2024-03-22T02:21:57;11.2;78.3
74742;SHT30;76291;48.288;16.314;2024-03-22T02:22:57;11.1;78.6
74742;SHT30;76291;48.288;16.314;2024-03-22T02:23:57;11.1;79.1
74742;SHT30;76291;48.288;16.314;2024-03-22T02:24:57;11.1;79.3
74742;SHT30;76291;48.288;16.314;2024-03-22T02:25:56;11.1;79.0
74742;SHT30;76291;48.288;16.314;2024-03-22T02:26:56;11.1;79.1
74742;SHT30;76291;48.288;16.314;2024-03-22T02:27:56;11.1;79.0
74742;SHT30;76291;48.288;16.314;2024-03-22T02:28:56;11.1;78.9
74742;SHT30;76291;48.288;16.314;2024-03-22T02:29:56;11.0;79.8
74742;SHT30;76291;48.288;16.314;2024-03-22T02:30:56;11.1;78.8
74742;SHT30;76291;48.288;16.314;2024-03-22T02:31:56;11.1;78.8
74742;SHT30;76291;48.288;16.314;2024-03-22T02:32:56;11.0;79.5
74742;SHT30;76291;48.288;16.314;2024-03-22T02:33:56;11.0;79.4
74742;SHT30;76291;48.288;16.314;2024-03-22T02:34:56;11.0;79.2
74742;SHT30;76291;48.288;16.314;2024-03-22T02:35:56;11.0;79.1
74742;SHT30;76291;48.288;16.314;2024-03-22T02:36:56;11.0;79.3
74742;SHT30;76291;48.288;16.314;2024-03-22T02:37:56;11.0;79.2
74742;SHT30;76291;48.288;16.314;2024-03-22T02:38:56;11.1;78.1
74742;SHT30;76291;48.288;16.314;2024-03-22T02:39:56;11.1;78.5
74742;SHT30;76291;48.288;16.314;2024-03-22T02:40:57;11.1;78.1
74742;SHT30;76291;48.288;16.314;2024-03-22T02:41:56;11.1;78.4
74742;SHT30;76291;48.288;16.314;2024-03-22T02:42:56;11.0;78.5
74742;SHT30;76291;48.288;16.314;2024-03-22T02:43:56;11.0;78.5
74742;SHT30;76291;48.288;16.314;2024-03-22T02:44:56;11.0;78.5
74742;SHT30;76291;48.288;16.314;2024-03-22T02:45:56;11.0;78.7
74742;SHT30;76291;48.288;16.314;2024-03-22T02:46:56;11.1;78.0
74742;SHT30;76291;48.288;16.314;2024-03-22T02:47:56;11.0;78.3
74742;SHT30;76291;48.288;16.314;2024-03-22T02:48:56;11.0;78.5
74742;SHT30;76291;48.288;16.314;2024-03-22T02:49:56;11.1;78.2
74742;SHT30;76291;48.288;16.314;2024-03-22T02:50:56;11.0;78.3
74742;SHT30;76291;48.288;16.314;2024-03-22T02:51:56;11.0;78.5
74742;SHT30;76291;48.288;16.314;2024-03-22T02:52:56;11.0;78.4
74742;SHT30;76291;48.288;16.314;2024-03-22T02:53:56;11.0;78.0
74742;SHT30;76291;48.288;16.314;2024-03-22T02:54:56;11.0;78.2
74742;SHT30;76291;48.288;16.314;2024-03-22T02:55:56;11.1;77.6
74742;SHT30;76291;48.288;16.314;2024-03-22T02:56:56;11.1;77.5
74742;SHT30;76291;48.288;16.314;2024-03-22T02:57:56;11.1;77.5
74742;SHT30;76291;48.288;16.314;2024-03-22T02:58:55;11.1;77.7
74742;SHT30;76291;48.288;16.314;2024-03-22T02:59:55;11.1;77.2
74742;SHT30;76291;48.288;16.314;2024-03-22T03:00:55;11.1;77.2
74742;SHT30;76291;48.288;16.314;2024-03-22T03:01:55;11.2;77.0
74742;SHT30;76291;48.288;16.314;2024-03-22T03:02:55;11.2;77.2
74742;SHT30;76291;48.288;16.314;2024-03-22T03:03:55;11.1;77.4
74742;SHT30;76291;48.288;16.314;2024-03-22T03:04:55;11.1;77.4
74742;SHT30;76291;48.288;16.314;2024-03-22T03:05:55;11.0;77.8
74742;SHT30;76291;48.288;16.314;2024-03-22T03:06:55;11.1;77.2
74742;SHT30;76291;48.288;16.314;2024-03-22T03:07:55;11.1;77.5
74742;SHT30;76291;48.288;16.314;2024-03-22T03:08:55;11.0;77.7
74742;SHT30;76291;48.288;16.314;2024-03-22T03:09:55;11.0;77.6
74742;SHT30;76291;48.288;16.314;2024-03-22T03:10:55;11.0;77.5
74742;SHT30;76291;48.288;16.314;2024-03-22T03:11:55;11.0;77.7
74742;SHT30;76291;48.288;16.314;2024-03-22T03:12:59;11.0;77.8
74742;SHT30;76291;48.288;16.314;2024-03-22T03:13:55;11.0;77.7
74742;SHT30;76291;48.288;16.314;2024-03-22T03:14:55;10.9;77.9
74742;SHT30;76291;48.288;16.314;2024-03-22T03:15:55;11.0;77.8
74742;SHT30;76291;48.288;16.314;2024-03-22T03:16:55;11.0;77.4
74742;SHT30;76291;48.288;16.314;2024-03-22T03:17:55;11.0;77.4
74742;SHT30;76291;48.288;16.314;2024-03-22T03:18:55;11.0;77.4
74742;SHT30;76291;48.288;16.314;2024-03-22T03:19:55;11.0;77.6
74742;SHT30;76291;48.288;16.314;2024-03-22T03:20:55;11.1;77.1
74742;SHT30;76291;48.288;16.314;2024-03-22T03:21:55;11.1;77.0
74742;SHT30;76291;48.288;16.314;2024-03-22T03:22:55;11.1;77.2
74742;SHT30;76291;48.288;16.314;2024-03-22T03:23:55;11.0;77.3
74742;SHT30;76291;48.288;16.314;2024-03-22T03:24:55;11.1;76.9
74742;SHT30;76291;48.288;16.314;2024-03-22T03:25:55;11.1;77.0
74742;SHT30;76291;48.288;16.314;2024-03-22T03:26:55;11.1;77.3
74742;SHT30;76291;48.288;16.314;2024-03-22T03:27:55;11.0;77.3
74742;SHT30;76291;48.288;16.314;2024-03-22T03:28:55;11.1;77.0
74742;SHT30;76291;48.288;16.314;2024-03-22T03:29:55;11.0;77.4
74742;SHT30;76291;48.288;16.314;2024-03-22T03:30:55;10.9;77.8
74742;SHT30;76291;48.288;16.314;2024-03-22T03:31:54;10.9;77.9
74742;SHT30;76291;48.288;16.314;2024-03-22T03:32:54;11.1;77.2
74742;SHT30;76291;48.288;16.314;2024-03-22T03:33:54;11.1;77.0
74742;SHT30;76291;48.288;16.314;2024-03-22T03:34:54;11.0;77.1
74742;SHT30;76291;48.288;16.314;2024-03-22T03:35:54;11.0;77.1
74742;SHT30;76291;48.288;16.314;2024-03-22T03:36:54;10.9;77.5
74742;SHT30;76291;48.288;16.314;2024-03-22T03:37:54;10.9;77.4
74742;SHT30;76291;48.288;16.314;2024-03-22T03:38:54;10.9;77.5
74742;SHT30;76291;48.288;16.314;2024-03-22T03:39:54;11.0;77.4
74742;SHT30;76291;48.288;16.314;2024-03-22T03:40:54;11.0;77.0
74742;SHT30;76291;48.288;16.314;2024-03-22T03:41:54;10.9;77.2
74742;SHT30;76291;48.288;16.314;2024-03-22T03:42:54;10.9;77.2
74742;SHT30;76291;48.288;16.314;2024-03-22T03:43:54;10.9;77.3
74742;SHT30;76291;48.288;16.314;2024-03-22T03:44:54;10.9;77.3
74742;SHT30;76291;48.288;16.314;2024-03-22T03:45:55;10.9;76.9
74742;SHT30;76291;48.288;16.314;2024-03-22T03:46:54;10.9;77.5
74742;SHT30;76291;48.288;16.314;2024-03-22T03:47:54;11.0;77.1
74742;SHT30;76291;48.288;16.314;2024-03-22T03:48:54;11.0;77.0
74742;SHT30;76291;48.288;16.314;2024-03-22T03:49:54;11.0;77.0
74742;SHT30;76291;48.288;16.314;2024-03-22T03:50:54;11.0;76.9
74742;SHT30;76291;48.288;16.314;2024-03-22T03:51:54;11.0;76.9
74742;SHT30;76291;48.288;16.314;2024-03-22T03:52:54;11.1;76.7
74742;SHT30;76291;48.288;16.314;2024-03-22T03:53:54;11.0;76.8
74742;SHT30;76291;48.288;16.314;2024-03-22T03:54:54;11.0;76.7
74742;SHT30;76291;48.288;16.314;2024-03-22T03:55:54;11.0;76.8
74742;SHT30;76291;48.288;16.314;2024-03-22T03:56:54;11.0;76.9
74742;SHT30;76291;48.288;16.314;2024-03-22T03:57:54;11.1;76.4
74742;SHT30;76291;48.288;16.314;2024-03-22T03:58:54;11.1;76.2
74742;SHT30;76291;48.288;16.314;2024-03-22T03:59:54;11.1;76.4
74742;SHT30;76291;48.288;16.314;2024-03-22T04:00:54;11.0;76.6
74742;SHT30;76291;48.288;16.314;2024-03-22T04:01:54;10.9;76.8
74742;SHT30;76291;48.288;16.314;2024-03-22T04:02:54;10.9;77.0
74742;SHT30;76291;48.288;16.314;2024-03-22T04:03:54;10.9;77.0
74742;SHT30;76291;48.288;16.314;2024-03-22T04:04:54;10.9;77.1
74742;SHT30;76291;48.288;16.314;2024-03-22T04:05:57;10.9;77.0
74742;SHT30;76291;48.288;16.314;2024-03-22T04:06:53;10.9;77.2
74742;SHT30;76291;48.288;16.314;2024-03-22T04:08:53;11.0;76.8
74742;SHT30;76291;48.288;16.314;2024-03-22T04:09:54;11.0;76.9
74742;SHT30;76291;48.288;16.314;2024-03-22T04:10:54;11.0;76.8
74742;SHT30;76291;48.288;16.314;2024-03-22T04:11:53;10.9;76.9
74742;SHT30;76291;48.288;16.314;2024-03-22T04:12:53;10.8;77.3
74742;SHT30;76291;48.288;16.314;2024-03-22T04:13:53;10.8;77.5
74742;SHT30;76291;48.288;16.314;2024-03-22T04:14:53;10.8;77.4
74742;SHT30;76291;48.288;16.314;2024-03-22T04:15:53;11.0;76.7
74742;SHT30;76291;48.288;16.314;2024-03-22T04:16:53;10.9;77.2
74742;SHT30;76291;48.288;16.314;2024-03-22T04:17:55;10.9;77.1
74742;SHT30;76291;48.288;16.314;2024-03-22T04:18:53;10.9;77.1
74742;SHT30;76291;48.288;16.314;2024-03-22T04:19:53;10.8;77.4
74742;SHT30;76291;48.288;16.314;2024-03-22T04:20:54;10.8;77.6
74742;SHT30;76291;48.288;16.314;2024-03-22T04:21:53;10.7;78.1
74742;SHT30;76291;48.288;16.314;2024-03-22T04:22:53;10.8;77.6
74742;SHT30;76291;48.288;16.314;2024-03-22T04:23:53;10.8;77.5
74742;SHT30;76291;48.288;16.314;2024-03-22T04:24:53;10.7;77.8
74742;SHT30;76291;48.288;16.314;2024-03-22T04:25:54;10.8;77.1
74742;SHT30;76291;48.288;16.314;2024-03-22T04:26:53;10.8;77.5
74742;SHT30;76291;48.288;16.314;2024-03-22T04:27:53;10.7;77.7
74742;SHT30;76291;48.288;16.314;2024-03-22T04:28:53;10.8;77.3
74742;SHT30;76291;48.288;16.314;2024-03-22T04:29:53;10.8;77.4
74742;SHT30;76291;48.288;16.314;2024-03-22T04:30:55;10.8;77.5
74742;SHT30;76291;48.288;16.314;2024-03-22T04:31:53;10.8;77.5
74742;SHT30;76291;48.288;16.314;2024-03-22T04:32:53;10.7;77.5
74742;SHT30;76291;48.288;16.314;2024-03-22T04:33:53;10.7;77.8
74742;SHT30;76291;48.288;16.314;2024-03-22T04:34:53;10.8;77.3
74742;SHT30;76291;48.288;16.314;2024-03-22T04:35:53;10.7;77.4
74742;SHT30;76291;48.288;16.314;2024-03-22T04:36:53;10.8;77.3
74742;SHT30;76291;48.288;16.314;2024-03-22T04:37:53;10.7;77.3
74742;SHT30;76291;48.288;16.314;2024-03-22T04:38:53;10.8;77.2
74742;SHT30;76291;48.288;16.314;2024-03-22T04:39:53;10.7;77.4
74742;SHT30;76291;48.288;16.314;2024-03-22T04:40:53;10.7;77.4
74742;SHT30;76291;48.288;16.314;2024-03-22T04:41:52;10.7;77.4
74742;SHT30;76291;48.288;16.314;2024-03-22T04:42:52;10.7;77.3
74742;SHT30;76291;48.288;16.314;2024-03-22T04:43:52;10.7;77.4
74742;SHT30;76291;48.288;16.314;2024-03-22T04:44:52;10.7;77.4
74742;SHT30;76291;48.288;16.314;2024-03-22T04:45:52;10.8;77.3
74742;SHT30;76291;48.288;16.314;2024-03-22T04:46:52;10.8;77.0
74742;SHT30;76291;48.288;16.314;2024-03-22T04:47:52;10.8;77.1
74742;SHT30;76291;48.288;16.314;2024-03-22T04:48:52;10.7;77.4
74742;SHT30;76291;48.288;16.314;2024-03-22T04:49:52;10.6;77.6
74742;SHT30;76291;48.288;16.314;2024-03-22T04:50:53;10.7;77.3
74742;SHT30;76291;48.288;16.314;2024-03-22T04:51:52;10.8;77.1
74742;SHT30;76291;48.288;16.314;2024-03-22T04:52:52;10.7;76.9
74742;SHT30;76291;48.288;16.314;2024-03-22T04:53:52;10.7;77.0
74742;SHT30;76291;48.288;16.314;2024-03-22T04:54:52;10.7;77.2
74742;SHT30;76291;48.288;16.314;2024-03-22T04:55:52;10.7;77.0
74742;SHT30;76291;48.288;16.314;2024-03-22T04:56:52;10.7;76.9
74742;SHT30;76291;48.288;16.314;2024-03-22T04:57:52;10.6;77.2
74742;SHT30;76291;48.288;16.314;2024-03-22T04:58:52;10.7;77.3
74742;SHT30;76291;48.288;16.314;2024-03-22T04:59:52;10.6;77.2
74742;SHT30;76291;48.288;16.314;2024-03-22T05:00:56;10.6;77.4
74742;SHT30;76291;48.288;16.314;2024-03-22T05:01:52;10.5;77.7
74742;SHT30;76291;48.288;16.314;2024-03-22T05:02:54;10.5;77.5
74742;SHT30;76291;48.288;16.314;2024-03-22T05:03:52;10.5;77.5
74742;SHT30;76291;48.288;16.314;2024-03-22T05:04:52;10.6;77.6
74742;SHT30;76291;48.288;16.314;2024-03-22T05:05:52;10.5;77.9
74742;SHT30;76291;48.288;16.314;2024-03-22T05:06:52;10.5;77.9
74742;SHT30;76291;48.288;16.314;2024-03-22T05:07:52;10.5;77.4
74742;SHT30;76291;48.288;16.314;2024-03-22T05:08:52;10.6;77.4
74742;SHT30;76291;48.288;16.314;2024-03-22T05:09:52;10.6;77.1
74742;SHT30;76291;48.288;16.314;2024-03-22T05:10:52;10.6;77.3
74742;SHT30;76291;48.288;16.314;2024-03-22T05:11:52;10.5;77.4
74742;SHT30;76291;48.288;16.314;2024-03-22T05:12:52;10.5;77.4
74742;SHT30;76291;48.288;16.314;2024-03-22T05:13:51;10.5;77.5
74742;SHT30;76291;48.288;16.314;2024-03-22T05:14:51;10.5;77.5
74742;SHT30;76291;48.288;16.314;2024-03-22T05:15:51;10.4;77.5
74742;SHT30;76291;48.288;16.314;2024-03-22T05:16:51;10.4;77.5
74742;SHT30;76291;48.288;16.314;2024-03-22T05:17:51;10.4;78.0
74742;SHT30;76291;48.288;16.314;2024-03-22T05:18:51;10.4;77.7
74742;SHT30;76291;48.288;16.314;2024-03-22T05:19:51;10.4;77.4
74742;SHT30;76291;48.288;16.314;2024-03-22T05:20:51;10.4;77.5
74742;SHT30;76291;48.288;16.314;2024-03-22T05:21:51;10.4;77.6
74742;SHT30;76291;48.288;16.314;2024-03-22T05:22:51;10.4;77.6
74742;SHT30;76291;48.288;16.314;2024-03-22T05:23:51;10.3;77.7
74742;SHT30;76291;48.288;16.314;2024-03-22T05:24:51;10.3;77.7
74742;SHT30;76291;48.288;16.314;2024-03-22T05:25:51;10.3;77.7
74742;SHT30;76291;48.288;16.314;2024-03-22T05:26:52;10.3;77.7
74742;SHT30;76291;48.288;16.314;2024-03-22T05:27:51;10.4;77.6
74742;SHT30;76291;48.288;16.314;2024-03-22T05:28:51;10.3;77.5
74742;SHT30;76291;48.288;16.314;2024-03-22T05:29:51;10.4;77.2
74742;SHT30;76291;48.288;16.314;2024-03-22T05:30:51;10.5;77.1
74742;SHT30;76291;48.288;16.314;2024-03-22T05:31:51;10.4;77.1
74742;SHT30;76291;48.288;16.314;2024-03-22T05:32:51;10.4;76.9
74742;SHT30;76291;48.288;16.314;2024-03-22T05:33:51;10.3;77.2
74742;SHT30;76291;48.288;16.314;2024-03-22T05:34:51;10.4;77.1
74742;SHT30;76291;48.288;16.314;2024-03-22T05:35:51;10.5;76.8
74742;SHT30;76291;48.288;16.314;2024-03-22T05:36:51;10.4;77.0
74742;SHT30;76291;48.288;16.314;2024-03-22T05:37:51;10.4;77.2
74742;SHT30;76291;48.288;16.314;2024-03-22T05:38:51;10.3;77.5
74742;SHT30;76291;48.288;16.314;2024-03-22T05:39:51;10.4;76.9
74742;SHT30;76291;48.288;16.314;2024-03-22T05:40:51;10.5;76.7
74742;SHT30;76291;48.288;16.314;2024-03-22T05:41:51;10.4;76.8
74742;SHT30;76291;48.288;16.314;2024-03-22T05:42:51;10.5;76.7
74742;SHT30;76291;48.288;16.314;2024-03-22T05:43:51;10.5;76.5
74742;SHT30;76291;48.288;16.314;2024-03-22T05:44:51;10.4;76.8
74742;SHT30;76291;48.288;16.314;2024-03-22T05:45:51;10.4;76.8
74742;SHT30;76291;48.288;16.314;2024-03-22T05:46:50;10.4;76.8
74742;SHT30;76291;48.288;16.314;2024-03-22T05:47:50;10.5;76.8
74742;SHT30;76291;48.288;16.314;2024-03-22T05:48:50;10.5;76.6
74742;SHT30;76291;48.288;16.314;2024-03-22T05:49:50;10.5;76.4
74742;SHT30;76291;48.288;16.314;2024-03-22T05:50:50;10.7;75.7
74742;SHT30;76291;48.288;16.314;2024-03-22T05:51:50;10.6;75.9
74742;SHT30;76291;48.288;16.314;2024-03-22T05:52:50;10.6;76.2
74742;SHT30;76291;48.288;16.314;2024-03-22T05:53:50;10.6;76.2
74742;SHT30;76291;48.288;16.314;2024-03-22T05:54:50;10.5;76.4
74742;SHT30;76291;48.288;16.314;2024-03-22T05:55:50;10.6;76.3
74742;SHT30;76291;48.288;16.314;2024-03-22T05:56:50;10.7;76.0
74742;SHT30;76291;48.288;16.314;2024-03-22T05:57:50;10.7;75.7
74742;SHT30;76291;48.288;16.314;2024-03-22T05:58:50;10.7;75.5
74742;SHT30;76291;48.288;16.314;2024-03-22T05:59:50;10.7;76.0
74742;SHT30;76291;48.288;16.314;2024-03-22T06:00:50;10.6;76.2
74742;SHT30;76291;48.288;16.314;2024-03-22T06:01:50;10.7;75.6
74742;SHT30;76291;48.288;16.314;2024-03-22T06:02:50;10.7;75.8
74742;SHT30;76291;48.288;16.314;2024-03-22T06:03:50;10.7;75.7
74742;SHT30;76291;48.288;16.314;2024-03-22T06:04:50;10.7;75.6
74742;SHT30;76291;48.288;16.314;2024-03-22T06:05:50;10.7;75.9
74742;SHT30;76291;48.288;16.314;2024-03-22T06:06:50;10.8;75.6
74742;SHT30;76291;48.288;16.314;2024-03-22T06:07:50;10.8;75.4
74742;SHT30;76291;48.288;16.314;2024-03-22T06:08:50;10.8;75.8
74742;SHT30;76291;48.288;16.314;2024-03-22T06:09:50;10.8;75.4
74742;SHT30;76291;48.288;16.314;2024-03-22T06:10:50;10.7;75.9
74742;SHT30;76291;48.288;16.314;2024-03-22T06:11:50;10.8;75.7
74742;SHT30;76291;48.288;16.314;2024-03-22T06:12:50;10.9;75.4
74742;SHT30;76291;48.288;16.314;2024-03-22T06:13:50;10.8;75.6
74742;SHT30;76291;48.288;16.314;2024-03-22T06:14:50;10.8;75.7
74742;SHT30;76291;48.288;16.314;2024-03-22T06:15:50;10.8;75.7
74742;SHT30;76291;48.288;16.314;2024-03-22T06:16:50;10.8;75.5
74742;SHT30;76291;48.288;16.314;2024-03-22T06:17:50;10.9;75.3
74742;SHT30;76291;48.288;16.314;2024-03-22T06:18:50;10.9;75.4
74742;SHT30;76291;48.288;16.314;2024-03-22T06:19:49;10.9;75.5
74742;SHT30;76291;48.288;16.314;2024-03-22T06:20:49;11.0;75.1
74742;SHT30;76291;48.288;16.314;2024-03-22T06:21:49;10.9;75.5
74742;SHT30;76291;48.288;16.314;2024-03-22T06:22:49;11.0;74.8
74742;SHT30;76291;48.288;16.314;2024-03-22T06:23:50;11.0;74.8
74742;SHT30;76291;48.288;16.314;2024-03-22T06:24:49;11.1;75.0
74742;SHT30;76291;48.288;16.314;2024-03-22T06:25:51;11.0;75.2